Healy, Alaska
Current Conditions -  °F | °C
As of 2:16 AM on Saturday 25 Oct 2014 (Local Time) from PAIN Reporting Station
Broken Clouds Broken Clouds  
Wind Chill: 23°   Ceiling: 3800
Heat Index: 23°   Visibility: 10mi
Dew Point: 23°   Wind: 0mph
Humidity: 100%   Direction: NA
Pressure: 29.91"   Gusts: NA
Location:  63.85°N, 148.98°W
Report Text: PAIN 251016Z AUTO 00000KT 10SM FEW022 BKN038 M05/M05 A2991 RMK AO1
Loading
Personal Weather Stations






























Interactive Weather Map
Tropical Storm Tracking
New forecast layout! Learn more

10-Day Weather Forecast

Advertisements
Track Severe Weather on mobile